Česky Dansk Deutsch English Español Suomi Français Magyar Italiano Nederlands norsk Polski Português svenska Türkçe

 

Het Weer

Mascara-Ghriss (Algeria)

15:00, 18 augustus 2016 (GMT)

 
WE
 
Home            
Mascara-Ghriss Mecheria Oran/Tafaraoui Oran / Es Senia Tiaret Tlemcen Zenata Chlef Oujda Nador Melilla Nador/Arwi Djelfa Almeria / Aeropuerto Murcia / San Javier Laghouat Dar-El-Beida Murcia / Alcantarilla Alicante / El Altet Al Hoceima Bou-Saada Tilrempt/Hassi R'mel Taza Granada / Armilla

Om een weerknop op uw website of weblog te plaatsen, copieer onderstaande code en plak die in uw pagina. In het eerste vakje staat HTML-code, in het tweede vakje UBB-code.


Add to Google

Details

Wind speed:3 bf, 8 kn, 4.1 m/s, 9.2 miles/h, 14.8 km/h
Wind direction:WNW, 300°
Visibility:Greater than 10000 m, 10 km, 32800 ft, 6.2 miles
Clouds:CAVOC
Temperature:37°C, 99°F
Gefühlte Temperatur:36°C, 96°F
Dew-point:9°C, 48°F
Atmospheric pressure:1013 hPa, 759.8 mmHg, 29.91 inHg, 1.000 atm
Relative humidity:18.3 %
METAR:DAOV 181500Z 30008KT CAVOK 37/09 Q1013

Snelkoppelingen

Actuele weersinformatie van de hele wereld. Voeg locaties toe met het plus (+) symbool. Deze snelkoppelingen kunnen worden toegevoegd aan Google.

Lid van de Technetium groep

website free tracking
StatCounter NetStat W3C Validator

20-09-2021 09:22:04
astro.technetium.be money.technetium.be phote.technetium.be tafeltennistafel.technetium.be www.ligfiets.net